Time;durP1;ratioP1;P1;durP2;ratioP2;P2;SDS_P1;SDS_P2;PMS_P1;PMS_P2;Temp;Humidity;BMP_temperature;BMP_pressure;BME280_temperature;BME280_humidity;BME280_pressure;Samples;Min_cycle;Max_cycle;Signal;HPM_P1;HPM_P2
2022/02/05 00:00:34;;;;;;;6.33;4.93;;;5.40;99.90;;;;;;5046164;28;20437;-69
2022/02/05 00:41:00;;;;;;;8.63;5.50;;;5.40;99.90;;;;;;5001899;28;20626;-68
2022/02/05 00:43:28;;;;;;;7.90;5.70;;;5.30;99.90;;;;;;4990353;28;20434;-69
2022/02/05 00:45:55;;;;;;;5.77;5.27;;;5.30;99.90;;;;;;5007038;28;20494;-69
2022/02/05 00:48:22;;;;;;;10.23;6.10;;;5.40;99.90;;;;;;5002612;28;20492;-69
2022/02/05 00:50:59;;;;;;;8.33;6.13;;;5.40;99.90;;;;;;4993062;28;20463;-67
2022/02/05 00:53:30;;;;;;;6.37;5.83;;;5.40;99.90;;;;;;4962808;28;20506;-69
2022/02/05 00:56:10;;;;;;;8.13;6.30;;;5.40;99.90;;;;;;4971307;28;20448;-67
2022/02/05 00:58:38;;;;;;;5.63;5.13;;;5.50;99.90;;;;;;4971402;28;20806;-69
2022/02/05 01:01:06;;;;;;;6.10;5.50;;;5.40;99.90;;;;;;4988532;28;20515;-70
2022/02/05 01:03:33;;;;;;;6.90;5.17;;;5.40;99.90;;;;;;4990508;28;20974;-69
2022/02/05 01:06:00;;;;;;;6.53;5.83;;;5.40;99.90;;;;;;4990018;28;20546;-69
2022/02/05 01:08:26;;;;;;;5.20;4.70;;;5.40;99.90;;;;;;4990590;28;20894;-70
2022/02/05 01:10:52;;;;;;;8.60;5.30;;;5.50;99.90;;;;;;4999317;28;20499;-69
2022/02/05 01:13:18;;;;;;;10.33;5.83;;;5.60;99.90;;;;;;5048598;28;20198;-70
2022/02/05 01:15:54;;;;;;;6.93;5.40;;;5.40;99.90;;;;;;5031824;28;20965;-69
2022/02/05 01:18:21;;;;;;;7.60;4.80;;;5.40;99.90;;;;;;5031558;28;20308;-70
2022/02/05 01:23:26;;;;;;;8.10;5.13;;;5.40;99.90;;;;;;5051986;28;20969;-69
2022/02/05 01:26:00;;;;;;;8.10;5.20;;;5.30;99.90;;;;;;5051812;28;20517;-69
2022/02/05 01:28:31;;;;;;;9.10;5.93;;;5.30;99.90;;;;;;5051892;28;20885;-68
2022/02/05 01:30:57;;;;;;;5.77;4.70;;;5.30;99.90;;;;;;5051272;28;20528;-68
2022/02/05 01:36:14;;;;;;;6.03;4.60;;;5.20;99.90;;;;;;5035190;28;20531;-68
2022/02/05 01:52:13;;;;;;;6.93;4.43;;;5.10;99.90;;;;;;5032738;28;20398;-68
2022/02/05 01:57:40;;;;;;;8.50;5.00;;;5.00;99.90;;;;;;5035446;28;20954;-70
2022/02/05 02:05:28;;;;;;;7.43;4.60;;;5.10;99.90;;;;;;5057632;28;20472;-70
2022/02/05 02:28:46;;;;;;;7.00;4.97;;;5.20;99.90;;;;;;5052235;28;20463;-69
2022/02/05 02:31:17;;;;;;;7.80;5.03;;;5.20;99.90;;;;;;5053822;28;20416;-69
2022/02/05 02:33:47;;;;;;;9.67;4.37;;;5.20;99.90;;;;;;5053361;28;20410;-69
2022/02/05 02:36:34;;;;;;;9.47;4.20;;;5.30;99.90;;;;;;5055042;28;20440;-69
2022/02/05 02:39:17;;;;;;;6.13;4.17;;;5.30;99.90;;;;;;5058201;28;20415;-68
2022/02/05 02:41:49;;;;;;;7.60;4.20;;;5.20;99.90;;;;;;5062163;28;20421;-71
2022/02/05 02:44:15;;;;;;;7.37;4.50;;;5.20;99.90;;;;;;5012848;28;20771;-70
2022/02/05 02:46:41;;;;;;;13.10;4.40;;;5.10;99.90;;;;;;4994491;28;20435;-71
2022/02/05 02:49:09;;;;;;;6.07;4.40;;;5.10;99.90;;;;;;5019073;28;20460;-70
2022/02/05 02:59:59;;;;;;;6.50;4.03;;;4.90;99.90;;;;;;5036999;28;20460;-68
2022/02/05 03:02:26;;;;;;;5.90;4.40;;;5.00;99.90;;;;;;5036220;28;20398;-68
2022/02/05 03:04:55;;;;;;;8.63;4.87;;;4.80;99.90;;;;;;5035849;28;20430;-68
2022/02/05 03:07:25;;;;;;;10.63;4.67;;;4.80;99.90;;;;;;5036162;28;20401;-69
2022/02/05 03:09:52;;;;;;;8.17;5.00;;;4.90;99.90;;;;;;5036569;28;20960;-68
2022/02/05 03:12:19;;;;;;;8.00;3.90;;;4.90;99.90;;;;;;5054966;28;20431;-69
2022/02/05 03:14:45;;;;;;;7.10;4.57;;;4.90;99.90;;;;;;5055048;28;20467;-69
2022/02/05 03:19:44;;;;;;;6.00;4.47;;;5.00;99.90;;;;;;5055619;28;20392;-69
2022/02/05 03:22:10;;;;;;;8.50;3.90;;;5.00;99.90;;;;;;5053477;28;20457;-69
2022/02/05 03:24:35;;;;;;;4.93;3.60;;;5.00;99.90;;;;;;5055560;28;20460;-69
2022/02/05 03:27:01;;;;;;;7.97;4.83;;;4.90;99.90;;;;;;5054882;28;20787;-68
2022/02/05 03:29:26;;;;;;;7.93;4.53;;;4.90;99.90;;;;;;5055179;28;20212;-69
2022/02/05 03:31:52;;;;;;;10.50;4.70;;;4.90;99.90;;;;;;5053834;28;20538;-69
2022/02/05 03:34:17;;;;;;;4.47;3.60;;;5.00;99.90;;;;;;5054903;28;20181;-68
2022/02/05 03:36:43;;;;;;;5.63;3.97;;;5.00;99.90;;;;;;5054623;28;20194;-69
2022/02/05 03:39:09;;;;;;;7.40;3.90;;;4.80;99.90;;;;;;5060509;28;20300;-70
2022/02/05 03:41:35;;;;;;;4.63;3.43;;;4.80;99.90;;;;;;5039278;28;20174;-70
2022/02/05 03:44:01;;;;;;;4.13;3.83;;;4.90;99.90;;;;;;5054392;28;20458;-69
2022/02/05 03:46:29;;;;;;;8.00;3.57;;;4.90;99.90;;;;;;5055884;28;20439;-69
2022/02/05 03:48:54;;;;;;;5.77;3.73;;;4.90;99.90;;;;;;5055381;28;20444;-67
2022/02/05 03:51:20;;;;;;;7.20;4.10;;;4.80;99.90;;;;;;5055537;28;20413;-68
2022/02/05 03:53:45;;;;;;;5.47;3.50;;;4.90;99.90;;;;;;5053888;28;20205;-68
2022/02/05 03:56:11;;;;;;;10.57;3.90;;;4.90;99.90;;;;;;5054495;28;20215;-68
2022/02/05 03:58:36;;;;;;;8.33;4.53;;;4.80;99.90;;;;;;5054846;28;20196;-68
2022/02/05 04:01:02;;;;;;;5.50;3.70;;;4.90;99.90;;;;;;5054385;28;20302;-68
2022/02/05 04:03:27;;;;;;;8.77;4.00;;;4.90;99.90;;;;;;5052441;28;20183;-69
2022/02/05 04:05:53;;;;;;;6.37;4.10;;;4.90;99.90;;;;;;5054210;28;20291;-69
2022/02/05 04:08:19;;;;;;;8.27;4.47;;;4.90;99.90;;;;;;5054438;28;20209;-69
2022/02/05 04:10:48;;;;;;;6.10;3.80;;;4.90;99.90;;;;;;5036423;28;20186;-69
2022/02/05 04:18:44;;;;;;;13.13;4.10;;;5.10;99.90;;;;;;5054997;28;20432;-68
2022/02/05 04:21:10;;;;;;;5.73;3.77;;;5.00;99.90;;;;;;5054875;28;20417;-69
2022/02/05 04:23:35;;;;;;;10.53;3.53;;;5.00;99.90;;;;;;5055571;28;20227;-68
2022/02/05 04:26:01;;;;;;;8.67;3.40;;;5.10;99.90;;;;;;5053228;28;20573;-68
2022/02/05 04:28:26;;;;;;;5.63;3.60;;;5.10;99.90;;;;;;5053908;28;20704;-69
2022/02/05 04:30:52;;;;;;;6.43;2.77;;;5.00;99.90;;;;;;5054445;28;20564;-68
2022/02/05 04:33:17;;;;;;;9.50;3.27;;;5.10;99.90;;;;;;5036091;28;20178;-68
2022/02/05 04:35:45;;;;;;;4.40;3.20;;;5.10;99.90;;;;;;5050745;28;20218;-68
2022/02/05 04:38:10;;;;;;;6.73;3.37;;;5.10;99.90;;;;;;5032834;28;20227;-69
2022/02/05 04:40:52;;;;;;;4.50;2.97;;;5.10;99.90;;;;;;5033699;28;20828;-68
2022/02/05 04:43:52;;;;;;;6.47;3.63;;;5.10;99.90;;;;;;5016485;28;20181;-69
2022/02/05 04:46:43;;;;;;;9.07;3.77;;;5.10;99.90;;;;;;5031646;28;20433;-70
2022/02/05 04:49:31;;;;;;;7.47;3.63;;;5.10;99.90;;;;;;5034778;28;20450;-69
2022/02/05 04:57:46;;;;;;;5.43;3.37;;;5.10;99.90;;;;;;5032857;28;20296;-68
2022/02/05 05:00:10;;;;;;;4.60;3.00;;;5.10;99.90;;;;;;5031865;28;20896;-68
2022/02/05 05:02:51;;;;;;;13.07;4.03;;;5.10;99.90;;;;;;5025855;28;20508;-69
2022/02/05 05:07:56;;;;;;;9.80;3.30;;;5.10;99.90;;;;;;5033105;28;20406;-69
2022/02/05 05:10:32;;;;;;;3.20;2.90;;;5.10;99.90;;;;;;5037832;28;20445;-68
2022/02/05 05:13:07;;;;;;;6.70;3.40;;;5.00;99.90;;;;;;5035565;28;20420;-69
2022/02/05 05:19:11;;;;;;;7.27;3.20;;;5.00;99.90;;;;;;5052985;28;20924;-68
2022/02/05 05:21:02;;;;;;;5.27;3.17;;;5.00;99.90;;;;;;5051220;28;20438;-69
2022/02/05 05:23:28;;;;;;;8.90;3.50;;;5.00;99.90;;;;;;5052630;28;20408;-69
2022/02/05 05:25:53;;;;;;;7.47;3.60;;;5.00;99.90;;;;;;5052382;28;20197;-68
2022/02/05 05:28:19;;;;;;;6.47;3.93;;;5.10;99.90;;;;;;5052224;28;20209;-68
2022/02/05 05:30:44;;;;;;;4.13;2.83;;;5.00;99.90;;;;;;5052592;28;20166;-70
2022/02/05 05:33:10;;;;;;;11.37;3.90;;;5.00;99.90;;;;;;5051241;28;20170;-69
2022/02/05 05:35:36;;;;;;;7.10;3.90;;;5.00;99.90;;;;;;5051843;28;20206;-69
2022/02/05 05:38:03;;;;;;;6.27;3.00;;;5.00;99.90;;;;;;5052441;28;20257;-68
2022/02/05 05:40:29;;;;;;;6.80;3.20;;;4.90;99.90;;;;;;5034977;28;20169;-69
2022/02/05 05:43:01;;;;;;;4.93;3.30;;;4.90;99.90;;;;;;5051216;28;20504;-69
2022/02/05 05:48:03;;;;;;;6.07;3.37;;;4.90;99.90;;;;;;5052436;28;20777;-69
2022/02/05 05:53:14;;;;;;;8.33;3.53;;;5.00;99.90;;;;;;5052813;28;20431;-69
2022/02/05 05:55:48;;;;;;;8.83;3.27;;;5.00;99.90;;;;;;5052586;28;20455;-69
2022/02/05 05:58:16;;;;;;;5.80;3.20;;;4.90;99.90;;;;;;5053546;28;20970;-69
2022/02/05 06:00:42;;;;;;;5.33;2.70;;;4.90;99.90;;;;;;5052746;28;21107;-71
2022/02/05 06:03:08;;;;;;;6.27;3.40;;;4.90;99.90;;;;;;5051269;28;20423;-69
2022/02/05 06:05:34;;;;;;;6.57;2.77;;;5.00;99.90;;;;;;5034718;28;20969;-69
2022/02/05 06:07:59;;;;;;;6.50;3.63;;;5.00;99.90;;;;;;5052485;28;20186;-68
2022/02/05 06:10:25;;;;;;;6.87;3.40;;;5.00;99.90;;;;;;5042295;28;20186;-68
2022/02/05 06:12:51;;;;;;;12.67;2.97;;;5.00;99.90;;;;;;5032468;28;20262;-69
2022/02/05 06:15:16;;;;;;;10.70;3.30;;;5.00;99.90;;;;;;5014531;28;20565;-67
2022/02/05 06:17:42;;;;;;;6.53;3.57;;;4.90;99.90;;;;;;5031763;28;20174;-69
2022/02/05 06:20:08;;;;;;;8.10;3.60;;;4.90;99.90;;;;;;5032305;28;20175;-69
2022/02/05 06:22:36;;;;;;;7.30;3.57;;;4.90;99.90;;;;;;5051398;28;20176;-69
2022/02/05 06:25:02;;;;;;;6.23;3.90;;;4.90;99.90;;;;;;5052609;28;20431;-68
2022/02/05 06:27:28;;;;;;;11.37;4.57;;;4.90;99.90;;;;;;5056136;28;20514;-67
2022/02/05 06:29:53;;;;;;;7.30;3.60;;;4.90;99.90;;;;;;5055690;28;20589;-68
2022/02/05 06:32:19;;;;;;;4.40;3.67;;;4.90;99.90;;;;;;5054349;28;20638;-69
2022/02/05 06:34:45;;;;;;;9.17;3.97;;;4.90;99.90;;;;;;5056465;28;20169;-68
2022/02/05 06:37:11;;;;;;;7.70;3.23;;;5.00;99.90;;;;;;5055758;28;20199;-69
2022/02/05 06:39:37;;;;;;;7.57;3.97;;;5.00;99.90;;;;;;5041192;28;20506;-69
2022/02/05 06:42:03;;;;;;;8.17;3.30;;;5.00;99.90;;;;;;5018277;28;20421;-68
2022/02/05 06:44:28;;;;;;;8.87;4.03;;;5.00;99.90;;;;;;5035787;28;20178;-69
2022/02/05 06:46:54;;;;;;;12.40;3.83;;;4.90;99.90;;;;;;5035391;28;20429;-69
2022/02/05 06:49:25;;;;;;;4.43;3.90;;;4.90;99.90;;;;;;5036769;28;20198;-69
2022/02/05 06:51:51;;;;;;;5.80;3.73;;;4.90;99.90;;;;;;5035461;28;20743;-69
2022/02/05 06:54:16;;;;;;;6.80;3.80;;;4.90;99.90;;;;;;5035615;28;20435;-70
2022/02/05 06:56:42;;;;;;;8.10;3.90;;;4.90;99.90;;;;;;5035211;28;20451;-69
2022/02/05 06:59:07;;;;;;;7.03;3.30;;;4.90;99.90;;;;;;5036810;28;20193;-69
2022/02/05 07:01:33;;;;;;;9.40;3.67;;;5.00;99.90;;;;;;5033709;28;20181;-69
2022/02/05 07:03:58;;;;;;;10.43;4.37;;;5.00;99.90;;;;;;5055772;28;20204;-69
2022/02/05 07:06:24;;;;;;;11.40;4.90;;;5.00;99.90;;;;;;5055122;28;20676;-68
2022/02/05 07:08:49;;;;;;;7.30;3.50;;;5.10;99.90;;;;;;5056990;28;20339;-68
2022/02/05 07:11:15;;;;;;;5.67;3.43;;;5.10;99.90;;;;;;5055422;28;20175;-69
2022/02/05 07:13:40;;;;;;;7.00;3.93;;;5.10;99.90;;;;;;5056721;28;20170;-67
2022/02/05 07:21:20;;;;;;;7.60;4.00;;;5.10;99.90;;;;;;5054006;28;20425;-69
2022/02/05 07:23:59;;;;;;;6.57;3.50;;;4.90;99.90;;;;;;5055216;28;20788;-68
2022/02/05 07:29:18;;;;;;;7.50;3.60;;;4.90;99.90;;;;;;5055418;28;20609;-68
2022/02/05 07:31:44;;;;;;;7.77;3.53;;;5.00;99.90;;;;;;5052033;28;20446;-68
2022/02/05 07:34:11;;;;;;;7.37;3.40;;;5.00;99.90;;;;;;5055016;28;20408;-69
2022/02/05 07:36:37;;;;;;;8.10;3.80;;;5.10;99.90;;;;;;5053632;28;20421;-69
2022/02/05 07:39:06;;;;;;;8.20;4.30;;;5.00;99.90;;;;;;5054894;28;20412;-68
2022/02/05 07:41:32;;;;;;;10.37;3.70;;;5.10;99.90;;;;;;5036616;28;20421;-70
2022/02/05 07:43:58;;;;;;;9.50;3.30;;;5.10;99.90;;;;;;5053479;28;20428;-70
2022/02/05 07:46:24;;;;;;;9.17;4.67;;;5.10;99.90;;;;;;5054026;28;20431;-70
2022/02/05 07:48:50;;;;;;;4.77;3.67;;;5.20;99.90;;;;;;5054455;28;20190;-69
2022/02/05 07:51:15;;;;;;;7.03;3.73;;;5.30;99.90;;;;;;5054373;28;20814;-70
2022/02/05 07:53:41;;;;;;;7.57;4.27;;;5.20;99.90;;;;;;5034982;28;20412;-69
2022/02/05 07:56:07;;;;;;;6.50;3.67;;;5.30;99.90;;;;;;5070840;22;20238;-70
2022/02/05 07:58:34;;;;;;;6.70;3.70;;;5.30;99.90;;;;;;5042735;28;20186;-69
2022/02/05 08:01:00;;;;;;;11.07;4.43;;;5.30;99.90;;;;;;5016019;28;20181;-70
2022/02/05 08:03:26;;;;;;;8.23;3.80;;;5.40;99.90;;;;;;5040674;28;20936;-70
2022/02/05 08:05:51;;;;;;;10.70;3.67;;;5.40;99.90;;;;;;5052727;28;20444;-70
2022/02/05 08:08:21;;;;;;;6.57;3.03;;;5.40;99.90;;;;;;5050395;28;20241;-71
2022/02/05 08:11:00;;;;;;;5.73;3.30;;;5.40;99.90;;;;;;5047307;28;20286;-69
2022/02/05 08:13:29;;;;;;;10.40;4.67;;;5.30;99.90;;;;;;5047897;28;20467;-70
2022/02/05 08:16:11;;;;;;;7.07;3.40;;;5.30;99.90;;;;;;5047498;28;21050;-70
2022/02/05 08:18:38;;;;;;;10.10;3.90;;;5.30;99.90;;;;;;5045574;28;20439;-68
2022/02/05 08:21:04;;;;;;;5.57;3.50;;;5.40;99.90;;;;;;5046397;28;20455;-67
2022/02/05 08:23:31;;;;;;;8.37;4.40;;;5.50;99.90;;;;;;5048082;28;20466;-70
2022/02/05 08:25:57;;;;;;;6.53;3.13;;;5.50;99.90;;;;;;5049419;28;20224;-68
2022/02/05 08:28:22;;;;;;;6.20;2.93;;;5.40;99.90;;;;;;5008469;28;21094;-68
2022/02/05 08:30:48;;;;;;;9.57;3.77;;;5.30;99.90;;;;;;5050271;28;20489;-70
2022/02/05 08:33:14;;;;;;;9.97;4.03;;;5.30;99.90;;;;;;5050041;28;20685;-69
2022/02/05 08:35:41;;;;;;;9.60;3.83;;;5.40;99.90;;;;;;5052795;28;20205;-69
2022/02/05 08:38:08;;;;;;;8.17;3.13;;;5.50;99.90;;;;;;5052597;28;20194;-69
2022/02/05 08:40:33;;;;;;;7.77;3.60;;;5.50;99.90;;;;;;5048301;28;20464;-68
2022/02/05 08:42:59;;;;;;;3.60;3.13;;;5.40;99.90;;;;;;5048477;28;20449;-69
2022/02/05 08:45:24;;;;;;;7.30;3.27;;;5.50;99.90;;;;;;5049397;28;20210;-69
2022/02/05 08:47:50;;;;;;;7.43;3.70;;;5.40;99.90;;;;;;5033315;28;20214;-69
2022/02/05 08:50:16;;;;;;;10.50;3.90;;;5.60;99.90;;;;;;5049178;28;20300;-69
2022/02/05 08:52:41;;;;;;;8.53;3.70;;;5.50;99.90;;;;;;5046557;28;20978;-68
2022/02/05 08:55:08;;;;;;;7.97;3.57;;;5.50;99.90;;;;;;5046626;28;20199;-68
2022/02/05 08:57:35;;;;;;;9.17;3.80;;;5.50;99.90;;;;;;5051587;28;20190;-69
2022/02/05 09:00:11;;;;;;;8.97;4.50;;;5.50;99.90;;;;;;5043748;28;20483;-68
2022/02/05 09:02:44;;;;;;;10.87;4.67;;;5.50;99.90;;;;;;5034169;28;20433;-68
2022/02/05 09:07:36;;;;;;;9.37;3.93;;;5.60;99.90;;;;;;5051779;28;21025;-71
2022/02/05 09:10:12;;;;;;;6.37;4.97;;;5.50;99.90;;;;;;5032644;28;20501;-70
2022/02/05 09:15:07;;;;;;;7.80;4.37;;;5.50;99.90;;;;;;5050624;28;20439;-68
2022/02/05 09:17:34;;;;;;;7.40;3.97;;;5.60;99.90;;;;;;5028470;28;20289;-68
2022/02/05 09:20:00;;;;;;;5.27;3.60;;;5.60;99.90;;;;;;5047055;28;20490;-69
2022/02/05 09:22:28;;;;;;;7.53;3.70;;;5.60;99.90;;;;;;5051190;28;20456;-69
2022/02/05 09:24:57;;;;;;;10.50;3.70;;;5.50;99.90;;;;;;5050728;28;20487;-69
2022/02/05 09:27:23;;;;;;;9.57;4.00;;;5.60;99.90;;;;;;5032674;28;20456;-68
2022/02/05 09:30:03;;;;;;;8.33;3.90;;;5.60;99.90;;;;;;5067678;28;20472;-70
2022/02/05 09:32:30;;;;;;;7.60;3.53;;;5.60;99.90;;;;;;5069220;28;20525;-70
2022/02/05 09:34:56;;;;;;;13.37;4.80;;;5.70;99.90;;;;;;5071234;28;20484;-70
2022/02/05 09:37:22;;;;;;;10.90;3.90;;;5.70;99.90;;;;;;5070348;28;20448;-69
2022/02/05 09:39:48;;;;;;;7.93;4.83;;;5.70;99.90;;;;;;5070840;28;20200;-69
2022/02/05 09:42:14;;;;;;;8.93;3.87;;;5.80;99.90;;;;;;5051696;28;20465;-67
2022/02/05 09:44:40;;;;;;;12.73;4.63;;;5.80;99.90;;;;;;5071162;28;20435;-68
2022/02/05 09:47:06;;;;;;;11.20;5.57;;;5.80;99.90;;;;;;5070006;28;20443;-69
2022/02/05 09:49:32;;;;;;;7.10;4.47;;;5.80;99.90;;;;;;5070818;28;20670;-69
2022/02/05 09:52:10;;;;;;;7.23;4.27;;;5.90;99.90;;;;;;5070913;28;20900;-69
2022/02/05 09:54:37;;;;;;;6.50;3.43;;;5.90;99.90;;;;;;5068997;28;20450;-68
2022/02/05 09:57:04;;;;;;;8.90;4.03;;;5.90;99.90;;;;;;5070038;28;20835;-70
2022/02/05 09:59:38;;;;;;;7.87;4.40;;;6.00;99.90;;;;;;5070595;28;20439;-69
2022/02/05 10:02:21;;;;;;;9.47;4.83;;;6.00;99.90;;;;;;5070649;28;20450;-67
2022/02/05 10:04:58;;;;;;;8.40;3.67;;;6.10;99.90;;;;;;5069841;28;20858;-68
2022/02/05 10:07:28;;;;;;;6.87;3.43;;;6.20;99.90;;;;;;5069851;28;20458;-68
2022/02/05 10:10:02;;;;;;;6.03;3.80;;;6.30;99.90;;;;;;5070253;28;20458;-69
2022/02/05 10:12:28;;;;;;;10.20;4.43;;;6.40;99.90;;;;;;5070535;28;20441;-69
2022/02/05 10:14:56;;;;;;;8.63;4.10;;;6.40;99.90;;;;;;5069138;28;20829;-70
2022/02/05 10:17:43;;;;;;;7.87;4.73;;;6.40;99.90;;;;;;5069481;28;20556;-68
2022/02/05 10:20:11;;;;;;;10.00;4.57;;;6.50;99.90;;;;;;5051962;28;20480;-68
2022/02/05 10:22:43;;;;;;;5.80;4.07;;;6.50;99.90;;;;;;5050217;28;20460;-69
2022/02/05 10:25:23;;;;;;;9.27;4.53;;;6.40;99.90;;;;;;5056167;28;20536;-68
2022/02/05 10:27:50;;;;;;;7.33;3.97;;;6.30;99.90;;;;;;5065098;28;21083;-69
2022/02/05 10:30:28;;;;;;;7.80;4.70;;;6.40;99.90;;;;;;5023220;28;20465;-68
2022/02/05 10:33:13;;;;;;;7.30;4.43;;;6.40;99.90;;;;;;5047961;28;20510;-68
2022/02/05 10:35:54;;;;;;;13.03;4.57;;;6.40;99.90;;;;;;5043555;28;20852;-68
2022/02/05 10:43:56;;;;;;;8.67;3.73;;;6.50;99.90;;;;;;5041993;28;20874;-68
2022/02/05 10:46:33;;;;;;;9.80;4.47;;;6.50;99.90;;;;;;5046161;28;20456;-68
2022/02/05 10:48:58;;;;;;;9.47;3.73;;;6.50;99.90;;;;;;5047334;28;20206;-68
2022/02/05 10:51:39;;;;;;;10.20;3.93;;;6.60;99.90;;;;;;5027703;28;20871;-68
2022/02/05 10:54:13;;;;;;;11.20;5.53;;;6.40;99.90;;;;;;5031760;28;20245;-69
2022/02/05 10:56:57;;;;;;;17.20;13.27;;;6.40;99.90;;;;;;5020900;28;21014;-68
2022/02/05 10:59:39;;;;;;;15.23;11.63;;;6.70;99.90;;;;;;5046154;28;20444;-70
2022/02/05 11:07:34;;;;;;;14.63;12.77;;;7.10;99.90;;;;;;5044647;28;20476;-68
2022/02/05 11:10:00;;;;;;;10.17;4.80;;;7.20;99.90;;;;;;5044033;28;20460;-68
2022/02/05 11:20:30;;;;;;;8.63;4.13;;;7.10;99.90;;;;;;5048278;28;20431;-67
2022/02/05 11:22:59;;;;;;;10.40;4.33;;;7.00;99.90;;;;;;5058408;28;20428;-69
2022/02/05 11:25:35;;;;;;;8.80;4.27;;;6.90;99.90;;;;;;5053608;28;20217;-68
2022/02/05 11:28:01;;;;;;;9.40;4.50;;;7.00;99.90;;;;;;5052927;28;20392;-68
2022/02/05 11:30:27;;;;;;;7.13;3.70;;;7.00;99.90;;;;;;5053458;28;20563;-68
2022/02/05 11:33:01;;;;;;;8.63;4.37;;;7.10;99.90;;;;;;5054380;28;20417;-68
2022/02/05 11:35:41;;;;;;;8.13;4.43;;;7.10;99.90;;;;;;5050774;28;20206;-69
2022/02/05 11:38:07;;;;;;;7.30;4.63;;;7.10;99.90;;;;;;5052820;28;20423;-69
2022/02/05 11:40:41;;;;;;;9.30;4.93;;;7.20;99.90;;;;;;5052369;28;20424;-68
2022/02/05 11:43:20;;;;;;;5.70;4.00;;;7.20;99.90;;;;;;5065762;28;20538;-69
2022/02/05 11:46:04;;;;;;;7.00;4.07;;;7.10;99.90;;;;;;5073405;28;20428;-68
2022/02/05 11:48:56;;;;;;;8.80;4.40;;;7.00;99.90;;;;;;5073302;28;20802;-68
2022/02/05 11:51:24;;;;;;;8.37;4.40;;;6.80;99.90;;;;;;5060503;28;20523;-69
2022/02/05 11:53:56;;;;;;;6.37;4.30;;;6.70;99.90;;;;;;5054623;28;20495;-68
2022/02/05 11:56:23;;;;;;;8.67;5.57;;;6.60;99.90;;;;;;5052883;28;20475;-68
2022/02/05 11:58:58;;;;;;;5.33;4.23;;;6.60;99.90;;;;;;5053278;28;20913;-69
2022/02/05 12:01:34;;;;;;;10.17;4.23;;;6.70;99.90;;;;;;5033585;28;21002;-69
2022/02/05 12:04:14;;;;;;;6.20;4.27;;;6.90;99.90;;;;;;5044655;28;20420;-69
2022/02/05 12:06:46;;;;;;;5.20;3.50;;;7.00;99.90;;;;;;5053014;28;20447;-69
2022/02/05 12:09:37;;;;;;;7.60;3.83;;;7.00;99.90;;;;;;5053904;28;20440;-69
2022/02/05 12:15:12;;;;;;;9.80;4.50;;;7.20;99.90;;;;;;5054545;28;20432;-68
2022/02/05 12:20:51;;;;;;;8.30;3.70;;;7.20;99.90;;;;;;5049306;28;20467;-68
2022/02/05 12:25:58;;;;;;;7.13;3.67;;;7.10;99.90;;;;;;5054377;28;20510;-69
2022/02/05 12:28:39;;;;;;;8.47;4.17;;;7.10;99.90;;;;;;5056182;28;20397;-69
2022/02/05 12:31:26;;;;;;;6.90;4.23;;;7.10;99.90;;;;;;5053079;28;20426;-69
2022/02/05 12:33:59;;;;;;;5.53;3.73;;;7.20;99.90;;;;;;5049411;28;20473;-69
2022/02/05 12:36:34;;;;;;;5.17;4.00;;;7.20;99.90;;;;;;5053266;28;20446;-69
2022/02/05 12:39:03;;;;;;;6.23;4.37;;;7.30;99.90;;;;;;5054214;28;20412;-70
2022/02/05 12:41:30;;;;;;;7.17;4.07;;;7.30;99.90;;;;;;5052479;28;20445;-69
2022/02/05 12:43:57;;;;;;;6.37;4.60;;;7.30;99.90;;;;;;5052224;28;20422;-69
2022/02/05 12:46:41;;;;;;;7.07;4.07;;;7.30;99.90;;;;;;5033931;28;20442;-70
2022/02/05 12:49:16;;;;;;;8.70;4.33;;;7.30;99.90;;;;;;5053482;28;20569;-69
2022/02/05 12:51:43;;;;;;;9.03;4.77;;;7.40;99.90;;;;;;5052299;28;20465;-68
2022/02/05 12:54:12;;;;;;;5.70;4.10;;;7.40;99.90;;;;;;5052515;28;20409;-70
2022/02/05 12:56:40;;;;;;;9.30;4.20;;;7.50;99.90;;;;;;5051540;28;20454;-69
2022/02/05 12:59:11;;;;;;;7.93;4.13;;;7.30;99.90;;;;;;5052303;28;20415;-68
2022/02/05 13:01:48;;;;;;;7.73;4.40;;;7.30;99.90;;;;;;5070541;28;20476;-66
2022/02/05 13:04:19;;;;;;;7.70;4.10;;;7.30;99.90;;;;;;5071997;28;20433;-67
2022/02/05 13:06:59;;;;;;;12.23;4.57;;;7.20;99.90;;;;;;5071642;28;20431;-67
2022/02/05 13:09:27;;;;;;;10.70;3.67;;;7.20;99.90;;;;;;5072703;28;20447;-68
2022/02/05 13:12:05;;;;;;;7.70;5.20;;;7.10;99.90;;;;;;5069597;28;20425;-68
2022/02/05 13:14:47;;;;;;;5.93;4.23;;;7.20;99.90;;;;;;5071441;28;20393;-67
2022/02/05 13:17:27;;;;;;;5.77;4.70;;;7.30;99.90;;;;;;5071133;28;20423;-68
2022/02/05 13:25:37;;;;;;;11.80;4.10;;;7.70;99.90;;;;;;5070960;28;20441;-68
2022/02/05 13:28:10;;;;;;;5.23;3.90;;;7.80;99.90;;;;;;5071191;28;20463;-69
2022/02/05 13:36:12;;;;;;;4.90;3.20;;;8.00;99.90;;;;;;5070348;28;20422;-69
2022/02/05 13:38:54;;;;;;;8.13;3.77;;;8.00;99.90;;;;;;5071104;28;20415;-68
2022/02/05 13:41:31;;;;;;;7.67;3.63;;;7.90;99.90;;;;;;5071244;28;20416;-68
2022/02/05 13:43:59;;;;;;;9.17;3.73;;;7.90;99.90;;;;;;5069498;28;20808;-68
2022/02/05 13:46:25;;;;;;;7.13;3.27;;;7.90;99.90;;;;;;5070787;28;20426;-68
2022/02/05 13:48:51;;;;;;;9.27;3.23;;;7.80;99.90;;;;;;5071273;28;20448;-68
2022/02/05 13:51:17;;;;;;;6.20;3.27;;;7.80;99.90;;;;;;5063036;28;20441;-68
2022/02/05 13:53:55;;;;;;;5.27;3.10;;;7.80;99.90;;;;;;5052028;28;20424;-68
2022/02/05 13:56:21;;;;;;;8.07;3.37;;;7.90;99.90;;;;;;5050472;28;20214;-68
2022/02/05 13:58:47;;;;;;;3.13;2.53;;;8.00;99.90;;;;;;5050780;28;21133;-68
2022/02/05 14:01:34;;;;;;;5.33;3.13;;;8.10;99.90;;;;;;5050508;28;20507;-68
2022/02/05 14:04:14;;;;;;;9.77;4.43;;;8.30;99.90;;;;;;5051734;28;20188;-67
2022/02/05 14:06:50;;;;;;;9.43;3.57;;;8.30;99.90;;;;;;5050313;28;21177;-69
2022/02/05 14:09:32;;;;;;;7.60;3.07;;;8.50;99.90;;;;;;5050686;28;20804;-66
2022/02/05 14:12:19;;;;;;;8.50;3.70;;;8.60;99.90;;;;;;5050858;28;20870;-67
2022/02/05 14:15:01;;;;;;;5.87;2.70;;;8.50;99.90;;;;;;5068025;23;20557;-68
2022/02/05 14:17:26;;;;;;;6.53;3.10;;;8.70;99.90;;;;;;5029385;28;20952;-68
2022/02/05 14:20:07;;;;;;;5.23;2.73;;;8.70;99.90;;;;;;5020618;28;20412;-68
2022/02/05 14:22:37;;;;;;;4.17;2.77;;;8.70;99.90;;;;;;5010462;28;20240;-69
2022/02/05 14:25:22;;;;;;;5.73;2.70;;;8.50;99.90;;;;;;5024431;28;20505;-68
2022/02/05 14:28:04;;;;;;;3.70;2.60;;;8.40;99.90;;;;;;5032226;28;20468;-69
2022/02/05 14:30:31;;;;;;;5.60;2.57;;;8.20;99.90;;;;;;5050457;28;20446;-68
2022/02/05 14:32:59;;;;;;;7.57;2.90;;;8.20;99.90;;;;;;5051409;28;20852;-69
2022/02/05 14:35:45;;;;;;;5.47;3.10;;;8.10;99.90;;;;;;5051870;28;20436;-68
2022/02/05 14:40:54;;;;;;;3.60;2.70;;;7.90;99.90;;;;;;5052339;28;20459;-69
2022/02/05 14:43:20;;;;;;;4.83;2.97;;;7.90;99.90;;;;;;5052352;28;20405;-68
2022/02/05 14:45:46;;;;;;;5.70;3.30;;;7.90;99.90;;;;;;5052449;28;20198;-69
2022/02/05 14:48:12;;;;;;;4.37;2.83;;;8.10;99.90;;;;;;5038822;28;20417;-69
2022/02/05 14:50:38;;;;;;;4.67;3.10;;;8.10;99.90;;;;;;5053133;28;20426;-70
2022/02/05 14:53:04;;;;;;;9.90;3.37;;;8.10;99.90;;;;;;5031166;28;20436;-70
2022/02/05 14:55:30;;;;;;;4.30;3.23;;;8.10;99.90;;;;;;5055645;28;20200;-69
2022/02/05 14:57:55;;;;;;;6.63;2.67;;;8.10;99.90;;;;;;5055938;28;20412;-69
2022/02/05 15:00:22;;;;;;;4.37;2.50;;;7.90;99.90;;;;;;5055709;28;20229;-69
2022/02/05 15:02:49;;;;;;;5.10;2.45;;;7.90;99.90;;;;;;5054616;28;20400;-68
2022/02/05 15:05:15;;;;;;;6.93;2.53;;;7.80;99.90;;;;;;5055646;28;20268;-69
2022/02/05 15:07:42;;;;;;;4.70;2.10;;;7.80;99.90;;;;;;5055566;28;20527;-69
2022/02/05 15:10:12;;;;;;;3.90;2.73;;;7.70;99.90;;;;;;5055304;28;20455;-68
2022/02/05 15:12:39;;;;;;;3.10;1.93;;;7.80;99.90;;;;;;5055462;28;20416;-69
2022/02/05 15:15:10;;;;;;;6.60;2.20;;;7.70;99.90;;;;;;5038135;28;20486;-68
2022/02/05 15:17:41;;;;;;;2.70;2.00;;;7.70;99.90;;;;;;5055599;28;20391;-69
2022/02/05 15:20:08;;;;;;;8.87;2.47;;;7.80;99.90;;;;;;5055167;28;20480;-69
2022/02/05 15:22:33;;;;;;;7.30;2.90;;;7.80;99.90;;;;;;5056041;28;20869;-69
2022/02/05 15:24:59;;;;;;;7.13;3.00;;;7.80;99.90;;;;;;5054753;28;20523;-69
2022/02/05 15:27:25;;;;;;;4.73;2.13;;;7.80;99.90;;;;;;5054871;28;20220;-68
2022/02/05 15:29:50;;;;;;;3.10;2.00;;;7.80;99.90;;;;;;5037419;28;20203;-68
2022/02/05 15:32:16;;;;;;;4.83;2.30;;;7.70;99.90;;;;;;5054738;28;20429;-69
2022/02/05 15:34:44;;;;;;;8.27;2.03;;;7.70;99.90;;;;;;5055033;28;20735;-69
2022/02/05 15:37:16;;;;;;;6.60;1.90;;;7.70;99.90;;;;;;5054662;28;20686;-68
2022/02/05 15:45:09;;;;;;;3.47;2.00;;;7.60;99.90;;;;;;5054727;28;20526;-68
2022/02/05 15:47:35;;;;;;;3.80;2.20;;;7.60;99.90;;;;;;5054826;28;20491;-68
2022/02/05 15:50:01;;;;;;;5.60;1.90;;;7.60;99.90;;;;;;5054530;28;20228;-68
2022/02/05 15:52:26;;;;;;;7.43;2.07;;;7.60;99.90;;;;;;5039213;28;20167;-68
2022/02/05 15:54:53;;;;;;;4.53;2.00;;;7.50;99.90;;;;;;5054865;28;20218;-69
2022/02/05 15:57:36;;;;;;;4.13;2.00;;;7.50;99.90;;;;;;5035950;28;20256;-69
2022/02/05 16:00:23;;;;;;;6.80;2.47;;;7.40;99.90;;;;;;5054653;28;20497;-68
2022/02/05 16:02:48;;;;;;;3.00;1.93;;;7.40;99.90;;;;;;5054333;28;20420;-68
2022/02/05 16:05:14;;;;;;;4.57;1.90;;;7.50;99.90;;;;;;5054470;28;20464;-70
2022/02/05 16:07:39;;;;;;;3.00;2.00;;;7.40;99.90;;;;;;5054090;28;20183;-68